createdAt,value
2022-09-23T00:02:16.837Z,64.96
2022-09-23T00:04:43.397Z,65.88
2022-09-23T00:07:09.740Z,65.15
2022-09-23T00:09:36.050Z,65.77
2022-09-23T00:12:06.879Z,65.82
2022-09-23T00:14:36.121Z,65.99
2022-09-23T00:17:02.557Z,65.81
2022-09-23T00:19:29.528Z,64.05
2022-09-23T00:21:56.681Z,65.58
2022-09-23T00:24:23.656Z,65.54
2022-09-23T00:26:50.066Z,65.53
2022-09-23T00:29:16.618Z,65.37
2022-09-23T00:31:42.957Z,64.35
2022-09-23T00:34:10.500Z,63.83
2022-09-23T00:36:37.139Z,63.83
2022-09-23T00:39:04.512Z,63.69
2022-09-23T00:41:32.047Z,63.27
2022-09-23T00:43:59.652Z,63.10
2022-09-23T00:46:29.051Z,63.79
2022-09-23T00:48:57.958Z,63.96
2022-09-23T00:51:27.205Z,63.96
2022-09-23T00:53:53.553Z,64.84
2022-09-23T00:56:20.972Z,63.75
2022-09-23T00:58:49.305Z,65.23
2022-09-23T01:01:15.864Z,64.82
2022-09-23T01:03:44.355Z,64.53
2022-09-23T01:06:10.964Z,63.96
2022-09-23T01:08:37.547Z,64.24
2022-09-23T01:11:18.884Z,64.46
2022-09-23T01:13:55.692Z,63.53
2022-09-23T01:16:30.819Z,65.26
2022-09-23T01:19:15.225Z,64.92
2022-09-23T01:22:01.139Z,64.76
2022-09-23T01:24:35.791Z,64.43
2022-09-23T01:27:09.843Z,65.27
2022-09-23T01:29:55.125Z,65.48
2022-09-23T01:32:33.590Z,66.00
2022-09-23T01:35:08.934Z,68.08
2022-09-23T01:37:44.293Z,67.03
2022-09-23T01:40:23.226Z,67.28
2022-09-23T01:43:01.765Z,65.43
2022-09-23T01:45:40.361Z,66.77
2022-09-23T01:48:14.662Z,65.67
2022-09-23T01:50:56.706Z,65.44
2022-09-23T01:53:25.821Z,65.84
2022-09-23T01:55:57.161Z,66.54
2022-09-23T01:58:29.133Z,65.80
2022-09-23T02:01:07.103Z,66.89
2022-09-23T02:03:42.102Z,65.67
2022-09-23T02:06:14.774Z,67.71
2022-09-23T02:08:43.912Z,67.18
2022-09-23T02:11:11.701Z,67.69
2022-09-23T02:13:50.035Z,68.16
2022-09-23T02:16:34.418Z,67.82
2022-09-23T02:19:05.529Z,67.30
2022-09-23T02:21:37.043Z,66.08
2022-09-23T02:24:08.991Z,65.74
2022-09-23T02:26:37.385Z,66.75
2022-09-23T02:29:03.691Z,66.50
2022-09-23T02:31:33.588Z,66.42
2022-09-23T02:34:04.765Z,65.81
2022-09-23T02:36:34.923Z,66.29
2022-09-23T02:39:04.722Z,66.52
2022-09-23T02:41:36.404Z,65.93
2022-09-23T02:44:02.732Z,66.88
2022-09-23T02:46:32.673Z,66.04
2022-09-23T02:49:01.297Z,67.16
2022-09-23T02:51:28.836Z,65.90
2022-09-23T02:53:56.366Z,66.45
2022-09-23T02:56:22.906Z,65.86
2022-09-23T02:58:50.050Z,65.93
2022-09-23T03:01:16.410Z,66.32
2022-09-23T03:03:50.351Z,66.20
2022-09-23T03:06:32.621Z,66.51
2022-09-23T03:09:18.877Z,67.55
2022-09-23T03:11:48.447Z,68.12
2022-09-23T03:14:19.738Z,67.44
2022-09-23T03:16:52.006Z,68.14
2022-09-23T03:19:18.369Z,69.08
2022-09-23T03:21:48.975Z,67.59
2022-09-23T03:24:15.470Z,68.59
2022-09-23T03:26:44.561Z,68.25
2022-09-23T03:29:11.561Z,68.47
2022-09-23T03:31:42.651Z,69.05
2022-09-23T03:34:21.379Z,68.09
2022-09-23T03:37:07.932Z,67.55
2022-09-23T03:39:37.460Z,68.86
2022-09-23T03:42:07.633Z,68.35
2022-09-23T03:44:39.581Z,69.33
2022-09-23T03:47:06.398Z,67.51
2022-09-23T03:49:37.191Z,68.55
2022-09-23T03:52:03.718Z,68.17
2022-09-23T03:54:30.294Z,69.17
2022-09-23T03:56:59.685Z,69.25
2022-09-23T03:59:26.563Z,70.19
2022-09-23T04:01:53.044Z,69.23
2022-09-23T04:04:19.635Z,69.59
2022-09-23T04:06:46.079Z,70.52
2022-09-23T04:09:12.527Z,69.70
2022-09-23T04:11:38.897Z,70.04
2022-09-23T04:14:05.575Z,69.77
2022-09-23T04:16:32.137Z,68.76
2022-09-23T04:18:58.720Z,70.43
2022-09-23T04:21:25.353Z,69.41
2022-09-23T04:23:51.689Z,68.93
2022-09-23T04:26:19.044Z,68.68
2022-09-23T04:28:45.367Z,68.66
2022-09-23T04:31:11.809Z,70.33
2022-09-23T04:33:38.400Z,68.37
2022-09-23T04:36:05.155Z,67.89
2022-09-23T04:38:31.481Z,67.59
2022-09-23T04:40:57.822Z,68.13
2022-09-23T04:43:24.244Z,68.37
2022-09-23T04:46:00.479Z,68.79
2022-09-23T04:48:27.353Z,67.96
2022-09-23T04:50:53.737Z,68.56
2022-09-23T04:53:21.142Z,69.21
2022-09-23T04:55:47.440Z,70.00
2022-09-23T04:58:13.774Z,69.84
2022-09-23T05:00:40.174Z,69.29
2022-09-23T05:03:06.912Z,69.48
2022-09-23T05:05:33.442Z,68.82
2022-09-23T05:07:59.768Z,69.62
2022-09-23T05:10:26.120Z,69.81
2022-09-23T05:12:56.943Z,69.76
2022-09-23T05:15:23.648Z,69.04
2022-09-23T05:17:49.955Z,68.90
2022-09-23T05:20:17.110Z,69.38
2022-09-23T05:22:43.443Z,69.75
2022-09-23T05:25:09.817Z,69.19
2022-09-23T05:27:36.549Z,69.18
2022-09-23T05:30:02.904Z,70.24
2022-09-23T05:32:29.226Z,69.32
2022-09-23T05:34:55.719Z,70.55
2022-09-23T05:37:22.475Z,71.07
2022-09-23T05:39:48.853Z,70.27
2022-09-23T05:42:15.639Z,68.25
2022-09-23T05:44:42.064Z,68.95
2022-09-23T05:47:08.510Z,68.76
2022-09-23T05:49:58.131Z,68.93
2022-09-23T05:52:23.378Z,69.95
2022-09-23T05:54:49.845Z,69.03
2022-09-23T05:57:16.151Z,67.89
2022-09-23T05:59:47.309Z,68.86
2022-09-23T06:02:14.656Z,70.05
2022-09-23T06:04:41.101Z,70.35
2022-09-23T06:07:07.451Z,70.34
2022-09-23T06:09:36.582Z,70.36
2022-09-23T06:12:03.809Z,71.04
2022-09-23T06:14:30.140Z,69.36
2022-09-23T06:16:56.497Z,69.42
2022-09-23T06:19:22.901Z,69.00
2022-09-23T06:21:49.570Z,68.35
2022-09-23T06:24:19.966Z,69.10
2022-09-23T06:26:48.046Z,68.94
2022-09-23T06:29:14.559Z,68.40
2022-09-23T06:31:41.878Z,69.47
2022-09-23T06:34:13.722Z,68.78
2022-09-23T06:36:44.370Z,67.56
2022-09-23T06:39:11.738Z,68.05
2022-09-23T06:41:39.172Z,68.02
2022-09-23T06:44:05.726Z,67.41
2022-09-23T06:46:32.211Z,67.84
2022-09-23T06:48:59.137Z,67.59
2022-09-23T06:51:25.471Z,67.80
2022-09-23T06:53:52.611Z,68.17
2022-09-23T06:56:21.008Z,67.40
2022-09-23T06:58:47.454Z,68.56
2022-09-23T07:01:18.277Z,68.28
2022-09-23T07:03:45.900Z,67.47
2022-09-23T07:06:12.314Z,67.85
2022-09-23T07:08:40.337Z,68.15
2022-09-23T07:11:07.015Z,67.84
2022-09-23T07:13:33.755Z,67.88
2022-09-23T07:16:01.818Z,67.15
2022-09-23T07:18:34.281Z,67.11
2022-09-23T07:21:07.101Z,66.85
2022-09-23T07:23:33.547Z,67.20
2022-09-23T07:26:00.518Z,66.49
2022-09-23T07:28:29.127Z,66.90
2022-09-23T07:31:00.361Z,66.27
2022-09-23T07:33:32.460Z,66.18
2022-09-23T07:36:06.413Z,65.77
2022-09-23T07:38:32.777Z,65.63
2022-09-23T07:41:06.426Z,65.69
2022-09-23T07:43:32.994Z,65.79
2022-09-23T07:46:04.376Z,65.30
2022-09-23T07:48:34.329Z,65.23
2022-09-23T07:51:05.705Z,65.09
2022-09-23T07:53:32.362Z,64.92
2022-09-23T07:55:59.370Z,64.39
2022-09-23T07:58:25.870Z,63.18
2022-09-23T08:00:54.011Z,63.09
2022-09-23T08:03:21.200Z,63.63
2022-09-23T08:05:47.592Z,63.63
2022-09-23T08:08:14.084Z,63.34
2022-09-23T08:10:40.430Z,63.12
2022-09-23T08:13:06.850Z,62.18
2022-09-23T08:15:33.557Z,63.01
2022-09-23T08:18:00.404Z,62.23
2022-09-23T08:20:47.439Z,62.31
2022-09-23T08:23:15.432Z,62.29
2022-09-23T08:25:44.398Z,62.21
2022-09-23T08:28:12.744Z,60.69
2022-09-23T08:30:39.614Z,61.14
2022-09-23T08:33:06.020Z,60.79
2022-09-23T08:35:32.377Z,60.65
2022-09-23T08:37:58.715Z,60.22
2022-09-23T08:40:25.213Z,59.42
2022-09-23T08:42:51.558Z,58.87
2022-09-23T08:45:20.531Z,57.80
2022-09-23T08:47:47.049Z,57.54
2022-09-23T08:50:16.643Z,55.75
2022-09-23T08:52:50.037Z,57.69
2022-09-23T08:55:17.033Z,55.04
2022-09-23T08:58:02.231Z,55.97
2022-09-23T09:00:33.318Z,54.74
2022-09-23T09:03:00.001Z,54.75
2022-09-23T09:05:27.505Z,55.17
2022-09-23T09:07:57.478Z,55.01
2022-09-23T09:10:25.712Z,57.35
2022-09-23T09:13:00.224Z,56.02
2022-09-23T09:15:27.898Z,55.51
2022-09-23T09:18:13.194Z,54.44
2022-09-23T09:20:59.494Z,54.17
2022-09-23T09:23:35.047Z,51.58
2022-09-23T09:26:02.726Z,52.28
2022-09-23T09:28:38.761Z,53.73
2022-09-23T09:31:21.998Z,52.18
2022-09-23T09:33:48.395Z,53.47
2022-09-23T09:36:18.934Z,50.99
2022-09-23T09:38:45.599Z,51.83
2022-09-23T09:41:13.982Z,51.26
2022-09-23T09:43:44.037Z,52.19
2022-09-23T09:46:29.207Z,52.28
2022-09-23T09:48:59.773Z,53.07
2022-09-23T09:51:27.727Z,52.28
2022-09-23T09:53:55.894Z,50.56
2022-09-23T09:56:31.581Z,51.85
2022-09-23T09:59:06.758Z,51.90
2022-09-23T10:01:33.851Z,51.22
2022-09-23T10:04:19.641Z,50.95
2022-09-23T10:07:03.850Z,49.12
2022-09-23T10:09:35.066Z,49.63
2022-09-23T10:12:04.541Z,49.83
2022-09-23T10:14:31.435Z,48.05
2022-09-23T10:17:05.425Z,47.53
2022-09-23T10:19:32.630Z,45.70
2022-09-23T10:22:04.726Z,46.57
2022-09-23T10:24:32.537Z,45.88
2022-09-23T10:27:04.398Z,46.82
2022-09-23T10:29:30.730Z,47.04
2022-09-23T10:32:20.449Z,45.89
2022-09-23T10:34:50.392Z,44.75
2022-09-23T10:37:20.211Z,44.11
2022-09-23T10:40:05.091Z,44.10
2022-09-23T10:42:56.038Z,44.71
2022-09-23T10:45:46.293Z,44.26
2022-09-23T10:48:18.586Z,44.73
2022-09-23T10:50:49.222Z,43.79
2022-09-23T10:53:41.996Z,43.45
2022-09-23T10:56:15.832Z,43.37
2022-09-23T10:58:42.118Z,43.40
2022-09-23T11:01:08.523Z,43.09
2022-09-23T11:03:35.037Z,43.31
2022-09-23T11:06:01.447Z,43.62
2022-09-23T11:08:33.774Z,43.89
2022-09-23T11:11:11.508Z,44.29
2022-09-23T11:13:56.981Z,43.95
2022-09-23T11:16:41.025Z,43.67
2022-09-23T11:19:21.490Z,44.34
2022-09-23T11:21:47.823Z,46.48
2022-09-23T11:24:32.762Z,46.65
2022-09-23T11:27:06.396Z,48.53
2022-09-23T11:29:51.359Z,47.34
2022-09-23T11:32:30.778Z,47.81
2022-09-23T11:35:06.268Z,48.16
2022-09-23T11:37:38.279Z,47.64
2022-09-23T11:40:17.569Z,48.28
2022-09-23T11:42:52.326Z,48.38
2022-09-23T11:45:23.308Z,48.72
2022-09-23T11:47:56.683Z,48.96
2022-09-23T11:50:37.582Z,49.06
2022-09-23T11:53:08.846Z,49.60
2022-09-23T11:55:57.538Z,50.22
2022-09-23T11:58:47.099Z,50.55
2022-09-23T12:01:36.338Z,50.04
2022-09-23T12:04:19.919Z,50.40
2022-09-23T12:06:50.005Z,51.31
2022-09-23T12:09:47.246Z,50.92
2022-09-23T12:12:17.290Z,50.91
2022-09-23T12:14:53.727Z,50.98
2022-09-23T12:17:20.042Z,52.07
2022-09-23T12:20:01.910Z,51.89
2022-09-23T12:22:28.268Z,52.18
2022-09-23T12:25:06.867Z,51.27
2022-09-23T12:27:39.018Z,51.02
2022-09-23T12:30:12.607Z,51.26
2022-09-23T12:32:39.431Z,52.32
2022-09-23T12:35:07.686Z,51.22
2022-09-23T12:37:34.410Z,51.54
2022-09-23T12:40:20.574Z,51.53
2022-09-23T12:42:47.667Z,51.57
2022-09-23T12:45:23.150Z,52.08
2022-09-23T12:47:49.578Z,51.96
2022-09-23T12:50:34.882Z,51.05
2022-09-23T12:53:21.290Z,50.75
2022-09-23T12:55:51.516Z,50.87
2022-09-23T12:58:36.445Z,51.89
2022-09-23T13:01:07.088Z,52.73
2022-09-23T13:03:52.287Z,52.40
2022-09-23T13:06:37.363Z,52.16
2022-09-23T13:09:06.606Z,52.98
2022-09-23T13:11:33.139Z,54.02
2022-09-23T13:14:01.873Z,53.63
2022-09-23T13:16:36.891Z,52.56
2022-09-23T13:19:04.368Z,53.03
2022-09-23T13:21:42.716Z,54.52
2022-09-23T13:24:19.743Z,53.85
2022-09-23T13:26:50.165Z,52.91
2022-09-23T13:29:27.412Z,53.03
2022-09-23T13:31:59.923Z,52.86
2022-09-23T13:34:28.832Z,52.99
2022-09-23T13:36:55.138Z,53.98
2022-09-23T13:39:25.381Z,53.18
2022-09-23T13:41:57.634Z,53.34
2022-09-23T13:44:24.018Z,53.59
2022-09-23T13:46:53.558Z,52.59
2022-09-23T13:49:36.214Z,53.14
2022-09-23T13:52:03.184Z,53.12
2022-09-23T13:54:48.664Z,54.39
2022-09-23T13:57:34.411Z,53.54
2022-09-23T14:00:01.688Z,52.50
2022-09-23T14:02:28.620Z,53.05
2022-09-23T14:04:58.767Z,52.52
2022-09-23T14:07:25.273Z,53.28
2022-09-23T14:09:54.190Z,53.45
2022-09-23T14:12:22.259Z,53.13
2022-09-23T14:14:50.486Z,53.11
2022-09-23T14:17:22.693Z,52.54
2022-09-23T14:19:50.188Z,52.50
2022-09-23T14:22:27.208Z,54.09
2022-09-23T14:24:54.423Z,53.49
2022-09-23T14:27:27.319Z,53.23
2022-09-23T14:29:54.180Z,52.95
2022-09-23T14:32:23.301Z,52.79
2022-09-23T14:34:49.906Z,52.87
2022-09-23T14:37:40.751Z,52.55
2022-09-23T14:40:33.414Z,53.25
2022-09-23T14:43:16.100Z,52.67
2022-09-23T14:45:44.850Z,54.36
2022-09-23T14:48:16.269Z,53.32
2022-09-23T14:50:50.430Z,53.04
2022-09-23T14:53:19.732Z,53.38
2022-09-23T14:55:52.663Z,53.14
2022-09-23T14:58:27.948Z,52.71
2022-09-23T15:00:59.471Z,53.50
2022-09-23T15:03:29.775Z,53.82
2022-09-23T15:05:58.095Z,53.98
2022-09-23T15:08:27.086Z,53.64
2022-09-23T15:10:53.813Z,53.89
2022-09-23T15:13:33.432Z,53.47
2022-09-23T15:16:01.736Z,53.26
2022-09-23T15:18:30.122Z,55.19
2022-09-23T15:21:07.442Z,53.88
2022-09-23T15:23:36.918Z,53.69
2022-09-23T15:26:08.657Z,53.27
2022-09-23T15:28:34.976Z,52.33
2022-09-23T15:31:01.346Z,50.15
2022-09-23T15:33:30.712Z,51.39
2022-09-23T15:35:57.411Z,49.96
2022-09-23T15:38:24.306Z,50.45
2022-09-23T15:40:50.700Z,50.80
2022-09-23T15:43:22.578Z,50.61
2022-09-23T15:45:52.099Z,50.23
2022-09-23T15:48:27.537Z,50.63
2022-09-23T15:50:54.491Z,50.05
2022-09-23T15:53:26.016Z,50.72
2022-09-23T15:55:52.965Z,50.95
2022-09-23T15:58:20.428Z,50.66
2022-09-23T16:00:51.132Z,51.06
2022-09-23T16:03:23.605Z,50.57
2022-09-23T16:05:50.220Z,51.06
2022-09-23T16:08:19.578Z,51.46
2022-09-23T16:10:46.926Z,51.84
2022-09-23T16:13:13.921Z,51.56
2022-09-23T16:15:40.697Z,52.02
2022-09-23T16:18:07.380Z,52.04
2022-09-23T16:20:35.024Z,52.44
2022-09-23T16:23:06.482Z,53.37
2022-09-23T16:25:33.929Z,54.29
2022-09-23T16:28:00.380Z,52.83
2022-09-23T16:30:28.232Z,55.76
2022-09-23T16:32:54.850Z,57.37
2022-09-23T16:35:21.899Z,55.65
2022-09-23T16:37:48.463Z,53.76
2022-09-23T16:40:16.626Z,54.49
2022-09-23T16:42:44.199Z,56.30
2022-09-23T16:45:11.076Z,55.07
2022-09-23T16:47:44.176Z,54.61
2022-09-23T16:50:11.597Z,55.30
2022-09-23T16:52:38.096Z,57.53
2022-09-23T16:55:04.744Z,58.18
2022-09-23T16:57:31.345Z,56.16
2022-09-23T17:00:16.570Z,55.70
2022-09-23T17:03:01.417Z,55.69
2022-09-23T17:05:27.790Z,57.01
2022-09-23T17:07:54.745Z,56.75
2022-09-23T17:10:21.387Z,60.21
2022-09-23T17:12:47.760Z,61.61
2022-09-23T17:15:14.119Z,60.81
2022-09-23T17:17:40.451Z,63.97
2022-09-23T17:20:06.971Z,64.75
2022-09-23T17:22:33.540Z,65.49
2022-09-23T17:25:02.110Z,66.47
2022-09-23T17:27:28.696Z,66.51
2022-09-23T17:29:55.493Z,61.91
2022-09-23T17:32:21.805Z,63.36
2022-09-23T17:34:48.100Z,61.62
2022-09-23T17:37:14.409Z,62.57
2022-09-23T17:39:41.614Z,61.81
2022-09-23T17:42:08.518Z,63.50
2022-09-23T17:44:36.135Z,65.05
2022-09-23T17:47:03.577Z,64.25
2022-09-23T17:49:35.275Z,63.54
2022-09-23T17:52:05.607Z,66.39
2022-09-23T17:54:32.952Z,64.99
2022-09-23T17:56:59.797Z,67.05
2022-09-23T17:59:26.592Z,63.97
2022-09-23T18:01:53.558Z,64.23
2022-09-23T18:04:20.246Z,65.22
2022-09-23T18:06:47.257Z,66.44
2022-09-23T18:09:13.976Z,68.81
2022-09-23T18:11:42.377Z,68.72
2022-09-23T18:14:18.434Z,68.74
2022-09-23T18:16:46.088Z,68.32
2022-09-23T18:19:13.952Z,69.35
2022-09-23T18:21:42.056Z,68.50
2022-09-23T18:26:59.429Z,69.89
2022-09-23T18:29:25.945Z,69.02
2022-09-23T18:31:52.360Z,69.17
2022-09-23T18:34:20.115Z,69.14
2022-09-23T18:36:46.580Z,71.15
2022-09-23T18:39:12.942Z,70.52
2022-09-23T18:41:39.590Z,70.43
2022-09-23T18:44:06.026Z,69.35
2022-09-23T18:46:32.420Z,68.74
2022-09-23T18:49:17.937Z,68.17
2022-09-23T18:52:02.476Z,69.29
2022-09-23T18:54:28.933Z,70.98
2022-09-23T18:56:55.649Z,71.17
2022-09-23T18:59:24.565Z,69.72
2022-09-23T19:01:51.547Z,67.43
2022-09-23T19:04:18.944Z,67.17
2022-09-23T19:06:45.795Z,67.11
2022-09-23T19:09:12.846Z,68.12
2022-09-23T19:11:39.595Z,68.39
2022-09-23T19:14:07.574Z,68.83
2022-09-23T19:16:35.198Z,68.13
2022-09-23T19:19:02.150Z,69.30
2022-09-23T19:21:28.934Z,69.19
2022-09-23T19:23:56.241Z,69.13
2022-09-23T19:26:24.619Z,67.65
2022-09-23T19:28:52.454Z,70.44
2022-09-23T19:31:22.203Z,68.05
2022-09-23T19:33:59.138Z,67.09
2022-09-23T19:36:30.031Z,68.80
2022-09-23T19:38:57.759Z,68.00
2022-09-23T19:41:24.906Z,69.03
2022-09-23T19:43:54.888Z,68.59
2022-09-23T19:46:22.247Z,70.31
2022-09-23T19:48:48.665Z,68.69
2022-09-23T19:51:15.821Z,70.05
2022-09-23T19:53:43.047Z,70.28
2022-09-23T19:56:09.446Z,68.77
2022-09-23T19:58:35.813Z,69.40
2022-09-23T20:01:07.109Z,69.81
2022-09-23T20:03:33.582Z,69.73
2022-09-23T20:06:00.362Z,70.21
2022-09-23T20:08:27.261Z,70.08
2022-09-23T20:10:53.562Z,70.53
2022-09-23T20:13:20.220Z,70.63
2022-09-23T20:15:48.193Z,70.74
2022-09-23T20:18:14.780Z,71.23
2022-09-23T20:20:41.102Z,71.48
2022-09-23T20:23:07.433Z,71.24
2022-09-23T20:25:53.987Z,71.15
2022-09-23T20:28:21.176Z,72.49
2022-09-23T20:30:52.113Z,72.53
2022-09-23T20:33:22.194Z,72.99
2022-09-23T20:35:50.815Z,72.00
2022-09-23T20:38:17.129Z,72.24
2022-09-23T20:40:43.574Z,72.39
2022-09-23T20:43:10.359Z,72.27
2022-09-23T20:45:39.622Z,72.23
2022-09-23T20:48:11.165Z,72.51
2022-09-23T20:50:38.767Z,72.53
2022-09-23T20:53:05.337Z,73.14
2022-09-23T20:55:31.885Z,73.11
2022-09-23T20:57:59.813Z,73.47
2022-09-23T21:00:27.208Z,72.28
2022-09-23T21:02:53.669Z,72.09
2022-09-23T21:05:21.173Z,72.46
2022-09-23T21:07:48.179Z,72.92
2022-09-23T21:10:14.619Z,72.89
2022-09-23T21:12:41.328Z,72.68
2022-09-23T21:15:07.832Z,73.32
2022-09-23T21:17:34.262Z,72.87
2022-09-23T21:20:01.346Z,73.80
2022-09-23T21:22:27.687Z,73.61
2022-09-23T21:25:26.284Z,74.73
2022-09-23T21:27:41.926Z,73.58
2022-09-23T21:30:09.249Z,73.61
2022-09-23T21:32:35.634Z,74.03
2022-09-23T21:35:02.480Z,73.75
2022-09-23T21:37:29.171Z,74.00
2022-09-23T21:40:14.265Z,74.60
2022-09-23T21:42:41.957Z,74.08
2022-09-23T21:45:09.033Z,74.27
2022-09-23T21:47:36.075Z,74.05
2022-09-23T21:50:02.803Z,73.94
2022-09-23T21:52:29.324Z,74.78
2022-09-23T21:54:55.894Z,74.32
2022-09-23T21:57:25.776Z,74.29
2022-09-23T21:59:54.083Z,73.83
2022-09-23T22:02:20.741Z,73.47
2022-09-23T22:04:47.414Z,73.63
2022-09-23T22:07:14.060Z,73.32
2022-09-23T22:09:40.794Z,73.60
2022-09-23T22:12:12.583Z,73.56
2022-09-23T22:14:39.527Z,73.87
2022-09-23T22:17:07.549Z,73.88
2022-09-23T22:19:35.875Z,73.58
2022-09-23T22:22:06.205Z,73.40
2022-09-23T22:24:33.064Z,73.85
2022-09-23T22:26:59.667Z,73.41
2022-09-23T22:29:46.413Z,73.79
2022-09-23T22:32:32.186Z,74.15
2022-09-23T22:34:59.568Z,73.58
2022-09-23T22:37:30.174Z,73.46
2022-09-23T22:39:57.301Z,74.07
2022-09-23T22:42:24.008Z,73.40
2022-09-23T22:44:51.494Z,73.54
2022-09-23T22:47:19.729Z,73.75
2022-09-23T22:49:46.381Z,74.04
2022-09-23T22:52:14.897Z,74.53
2022-09-23T22:54:41.872Z,74.49
2022-09-23T22:57:09.058Z,73.94
2022-09-23T22:59:36.033Z,73.71
2022-09-23T23:02:03.044Z,73.94
2022-09-23T23:04:30.272Z,74.00
2022-09-23T23:06:58.449Z,73.84
2022-09-23T23:09:24.902Z,73.64
2022-09-23T23:11:51.684Z,73.94
2022-09-23T23:14:18.697Z,73.67
2022-09-23T23:16:46.159Z,74.14
2022-09-23T23:19:14.685Z,74.12
2022-09-23T23:21:43.299Z,73.81
2022-09-23T23:24:14.149Z,73.54
2022-09-23T23:26:40.463Z,73.78
2022-09-23T23:29:06.780Z,73.80
2022-09-23T23:31:33.553Z,73.76
2022-09-23T23:34:00.050Z,73.85
2022-09-23T23:36:26.468Z,74.33
2022-09-23T23:38:53.105Z,74.95
2022-09-23T23:41:21.852Z,74.69
2022-09-23T23:43:52.781Z,73.96
2022-09-23T23:46:19.522Z,75.12
2022-09-23T23:48:48.034Z,75.73
2022-09-23T23:51:15.252Z,75.22
2022-09-23T23:53:42.266Z,75.12
2022-09-23T23:56:09.964Z,74.24
2022-09-23T23:58:36.430Z,74.34
